createdAt,value
2023-06-10T00:01:03.329Z,8.07
2023-06-10T00:02:07.723Z,8.45
2023-06-10T00:03:11.807Z,8.00
2023-06-10T00:04:15.738Z,8.20
2023-06-10T00:05:19.804Z,8.43
2023-06-10T00:06:23.589Z,8.68
2023-06-10T00:07:27.348Z,8.15
2023-06-10T00:08:31.093Z,7.45
2023-06-10T00:09:34.859Z,7.70
2023-06-10T00:10:40.189Z,7.73
2023-06-10T00:11:45.820Z,7.45
2023-06-10T00:12:49.669Z,7.50
2023-06-10T00:13:53.435Z,7.05
2023-06-10T00:14:57.195Z,7.72
2023-06-10T00:16:02.322Z,7.30
2023-06-10T00:17:06.785Z,7.30
2023-06-10T00:18:10.611Z,8.20
2023-06-10T00:19:14.591Z,7.57
2023-06-10T00:20:21.004Z,7.97
2023-06-10T00:21:24.918Z,7.70
2023-06-10T00:22:29.439Z,8.68
2023-06-10T00:23:35.655Z,8.55
2023-06-10T00:24:39.426Z,8.55
2023-06-10T00:25:46.173Z,9.23
2023-06-10T00:26:51.798Z,9.03
2023-06-10T00:27:58.000Z,9.25
2023-06-10T00:29:01.995Z,10.02
2023-06-10T00:30:06.407Z,9.10
2023-06-10T00:31:10.239Z,9.63
2023-06-10T00:32:14.110Z,8.70
2023-06-10T00:33:17.931Z,9.35
2023-06-10T00:34:21.756Z,9.38
2023-06-10T00:35:25.416Z,9.88
2023-06-10T00:36:29.166Z,9.70
2023-06-10T00:37:35.891Z,9.47
2023-06-10T00:38:39.737Z,9.45
2023-06-10T00:39:43.683Z,8.80
2023-06-10T00:40:50.155Z,8.15
2023-06-10T00:41:55.680Z,7.55
2023-06-10T00:42:59.485Z,7.20
2023-06-10T00:44:03.321Z,6.68
2023-06-10T00:45:08.527Z,6.28
2023-06-10T00:46:14.021Z,5.97
2023-06-10T00:47:18.204Z,5.85
2023-06-10T00:48:22.252Z,5.43
2023-06-10T00:49:26.209Z,5.70
2023-06-10T00:50:30.088Z,5.18
2023-06-10T00:51:33.956Z,5.30
2023-06-10T00:52:38.458Z,5.20
2023-06-10T00:53:42.855Z,4.83
2023-06-10T00:54:47.145Z,4.85
2023-06-10T00:55:53.985Z,4.70
2023-06-10T00:56:59.805Z,4.43
2023-06-10T00:58:04.810Z,4.80
2023-06-10T00:59:08.772Z,5.20
2023-06-10T01:00:13.784Z,4.80
2023-06-10T01:01:17.742Z,4.50
2023-06-10T01:02:21.795Z,5.15
2023-06-10T01:03:25.746Z,4.75
2023-06-10T01:04:29.554Z,4.50
2023-06-10T01:05:33.371Z,4.43
2023-06-10T01:06:43.383Z,4.57
2023-06-10T01:07:54.536Z,4.50
2023-06-10T01:09:04.212Z,4.20
2023-06-10T01:10:13.755Z,4.30
2023-06-10T01:11:23.020Z,4.10
2023-06-10T01:12:35.405Z,4.55
2023-06-10T01:13:45.008Z,4.50
2023-06-10T01:14:49.515Z,4.40
2023-06-10T01:15:54.604Z,4.37
2023-06-10T01:16:58.544Z,4.30
2023-06-10T01:18:03.376Z,3.83
2023-06-10T01:19:07.215Z,4.20
2023-06-10T01:20:11.825Z,4.13
2023-06-10T01:21:23.331Z,4.10
2023-06-10T01:22:27.694Z,4.00
2023-06-10T01:23:32.057Z,3.92
2023-06-10T01:24:36.002Z,4.38
2023-06-10T01:25:41.527Z,3.90
2023-06-10T01:26:47.299Z,4.07
2023-06-10T01:27:52.780Z,4.03
2023-06-10T01:29:02.164Z,4.38
2023-06-10T01:30:10.407Z,3.80
2023-06-10T01:31:32.361Z,4.38
2023-06-10T01:32:42.675Z,4.07
2023-06-10T01:33:49.597Z,3.80
2023-06-10T01:34:54.286Z,4.10
2023-06-10T01:35:59.650Z,3.60
2023-06-10T01:37:05.940Z,3.90
2023-06-10T01:38:22.989Z,3.90
2023-06-10T01:39:27.307Z,4.15
2023-06-10T01:40:33.860Z,4.07
2023-06-10T01:41:38.230Z,4.40
2023-06-10T01:42:42.165Z,4.10
2023-06-10T01:43:46.550Z,4.20
2023-06-10T01:44:53.200Z,4.03
2023-06-10T01:45:59.060Z,3.70
2023-06-10T01:47:03.178Z,4.03
2023-06-10T01:48:07.421Z,3.83
2023-06-10T01:49:11.251Z,4.00
2023-06-10T01:50:15.184Z,4.10
2023-06-10T01:51:18.986Z,4.05
2023-06-10T01:52:26.588Z,3.97
2023-06-10T01:53:33.027Z,3.60
2023-06-10T01:54:36.861Z,4.23
2023-06-10T01:55:40.609Z,3.80
2023-06-10T01:56:44.364Z,4.05
2023-06-10T01:57:49.016Z,4.22
2023-06-10T01:59:01.644Z,4.60
2023-06-10T02:00:05.967Z,4.30
2023-06-10T02:01:09.730Z,3.80
2023-06-10T02:02:13.684Z,3.95
2023-06-10T02:03:17.521Z,4.25
2023-06-10T02:04:21.345Z,3.90
2023-06-10T02:05:25.109Z,3.83
2023-06-10T02:06:30.143Z,3.88
2023-06-10T02:07:35.543Z,3.75
2023-06-10T02:08:39.280Z,3.60
2023-06-10T02:09:43.010Z,4.05
2023-06-10T02:10:46.665Z,3.97
2023-06-10T02:11:50.398Z,3.88
2023-06-10T02:12:54.247Z,3.90
2023-06-10T02:13:58.030Z,3.85
2023-06-10T02:15:01.766Z,3.58
2023-06-10T02:16:05.810Z,3.23
2023-06-10T02:17:09.564Z,3.50
2023-06-10T02:18:13.329Z,3.25
2023-06-10T02:19:19.370Z,3.55
2023-06-10T02:20:23.291Z,3.58
2023-06-10T02:21:27.415Z,3.63
2023-06-10T02:22:31.210Z,3.28
2023-06-10T02:23:38.366Z,3.30
2023-06-10T02:24:42.296Z,3.42
2023-06-10T02:25:46.135Z,3.90
2023-06-10T02:26:49.787Z,3.83
2023-06-10T02:27:53.568Z,3.42
2023-06-10T02:28:57.313Z,3.90
2023-06-10T02:30:01.255Z,3.78
2023-06-10T02:31:05.211Z,3.38
2023-06-10T02:32:12.720Z,3.43
2023-06-10T02:33:18.718Z,3.75
2023-06-10T02:34:22.586Z,4.10
2023-06-10T02:35:33.003Z,4.03
2023-06-10T02:36:38.887Z,4.40
2023-06-10T02:37:42.604Z,3.90
2023-06-10T02:38:48.018Z,3.90
2023-06-10T02:39:51.764Z,4.25
2023-06-10T02:40:57.506Z,3.70
2023-06-10T02:42:01.279Z,3.90
2023-06-10T02:43:04.970Z,3.80
2023-06-10T02:44:08.753Z,3.65
2023-06-10T02:45:12.804Z,3.50
2023-06-10T02:46:16.700Z,4.13
2023-06-10T02:47:25.693Z,3.55
2023-06-10T02:48:30.512Z,3.30
2023-06-10T02:49:34.320Z,3.75
2023-06-10T02:50:38.055Z,3.80
2023-06-10T02:51:41.846Z,3.90
2023-06-10T02:52:46.267Z,3.50
2023-06-10T02:53:51.681Z,3.50
2023-06-10T02:54:55.502Z,3.50
2023-06-10T02:55:59.388Z,3.75
2023-06-10T02:57:03.299Z,3.50
2023-06-10T02:58:08.765Z,3.63
2023-06-10T02:59:12.523Z,3.40
2023-06-10T03:00:22.096Z,3.63
2023-06-10T03:01:28.753Z,4.00
2023-06-10T03:02:44.116Z,3.88
2023-06-10T03:03:48.429Z,3.85
2023-06-10T03:04:52.234Z,3.57
2023-06-10T03:05:56.148Z,3.50
2023-06-10T03:07:02.153Z,3.70
2023-06-10T03:08:06.463Z,3.35
2023-06-10T03:09:12.642Z,3.50
2023-06-10T03:10:16.854Z,3.60
2023-06-10T03:11:20.615Z,3.95
2023-06-10T03:12:24.476Z,3.88
2023-06-10T03:13:29.632Z,3.40
2023-06-10T03:14:33.501Z,2.80
2023-06-10T03:15:37.249Z,3.00
2023-06-10T03:16:41.196Z,3.08
2023-06-10T03:17:45.067Z,3.03
2023-06-10T03:18:48.853Z,2.95
2023-06-10T03:19:55.402Z,2.90
2023-06-10T03:20:59.262Z,3.00
2023-06-10T03:22:11.181Z,3.20
2023-06-10T03:23:14.974Z,3.20
2023-06-10T03:24:20.489Z,2.70
2023-06-10T03:25:24.167Z,3.20
2023-06-10T03:26:28.825Z,2.93
2023-06-10T03:27:32.697Z,2.97
2023-06-10T03:28:36.472Z,3.15
2023-06-10T03:29:45.830Z,3.13
2023-06-10T03:30:49.806Z,3.50
2023-06-10T03:31:53.530Z,3.43
2023-06-10T03:33:00.495Z,2.97
2023-06-10T03:34:04.787Z,3.35
2023-06-10T03:35:11.895Z,3.58
2023-06-10T03:36:19.334Z,3.85
2023-06-10T03:37:23.156Z,3.27
2023-06-10T03:38:30.135Z,3.15
2023-06-10T03:39:35.649Z,3.05
2023-06-10T03:40:40.428Z,2.95
2023-06-10T03:41:44.211Z,3.30
2023-06-10T03:42:47.986Z,3.37
2023-06-10T03:43:51.705Z,2.78
2023-06-10T03:44:55.491Z,2.90
2023-06-10T03:45:59.541Z,2.80
2023-06-10T03:47:03.322Z,2.97
2023-06-10T03:48:07.719Z,2.70
2023-06-10T03:49:11.576Z,2.88
2023-06-10T03:50:17.873Z,3.08
2023-06-10T03:51:21.726Z,3.30
2023-06-10T03:52:25.428Z,2.95
2023-06-10T03:53:29.106Z,2.97
2023-06-10T03:54:34.418Z,3.40
2023-06-10T03:55:38.149Z,3.50
2023-06-10T03:56:42.125Z,3.30
2023-06-10T03:57:45.877Z,3.33
2023-06-10T03:58:49.771Z,3.77
2023-06-10T03:59:53.950Z,3.70
2023-06-10T04:00:57.707Z,3.65
2023-06-10T04:02:01.685Z,3.78
2023-06-10T04:03:05.570Z,3.88
2023-06-10T04:04:09.361Z,3.20
2023-06-10T04:05:13.279Z,3.35
2023-06-10T04:06:17.019Z,3.53
2023-06-10T04:07:20.852Z,3.30
2023-06-10T04:08:24.550Z,3.33
2023-06-10T04:09:28.510Z,3.60
2023-06-10T04:10:33.969Z,3.15
2023-06-10T04:11:37.914Z,3.60
2023-06-10T04:12:41.729Z,3.35
2023-06-10T04:13:45.459Z,3.42
2023-06-10T04:14:49.176Z,3.43
2023-06-10T04:15:53.023Z,3.83
2023-06-10T04:16:56.831Z,3.58
2023-06-10T04:18:00.742Z,3.25
2023-06-10T04:19:07.180Z,3.28
2023-06-10T04:20:11.499Z,3.70
2023-06-10T04:21:15.249Z,3.67
2023-06-10T04:22:18.976Z,3.72
2023-06-10T04:23:22.812Z,3.80
2023-06-10T04:24:26.585Z,3.70
2023-06-10T04:25:30.274Z,3.50
2023-06-10T04:26:37.694Z,3.83
2023-06-10T04:27:41.432Z,3.63
2023-06-10T04:28:46.127Z,3.80
2023-06-10T04:29:49.905Z,3.65
2023-06-10T04:30:53.557Z,3.40
2023-06-10T04:31:57.415Z,3.80
2023-06-10T04:33:01.266Z,3.85
2023-06-10T04:34:05.124Z,3.70
2023-06-10T04:35:10.227Z,3.47
2023-06-10T04:36:14.218Z,3.33
2023-06-10T04:37:18.008Z,3.60
2023-06-10T04:38:21.724Z,3.90
2023-06-10T04:39:25.427Z,3.03
2023-06-10T04:40:29.137Z,3.55
2023-06-10T04:41:34.613Z,3.50
2023-06-10T04:42:38.564Z,2.90
2023-06-10T04:43:42.351Z,3.45
2023-06-10T04:44:46.110Z,3.50
2023-06-10T04:45:49.852Z,3.00
2023-06-10T04:46:53.628Z,3.30
2023-06-10T04:47:57.385Z,3.20
2023-06-10T04:49:01.647Z,3.70
2023-06-10T04:50:06.152Z,3.53
2023-06-10T04:51:09.851Z,3.30
2023-06-10T04:52:13.657Z,3.23
2023-06-10T04:53:17.420Z,3.13
2023-06-10T04:54:21.114Z,3.10
2023-06-10T04:55:25.009Z,2.95
2023-06-10T04:56:28.727Z,2.92
2023-06-10T04:57:34.030Z,3.23
2023-06-10T04:58:37.774Z,3.20
2023-06-10T04:59:41.476Z,3.08
2023-06-10T05:00:45.243Z,2.80
2023-06-10T05:01:48.974Z,2.95
2023-06-10T05:02:52.833Z,2.90
2023-06-10T05:03:56.642Z,3.13
2023-06-10T05:05:00.353Z,3.10
2023-06-10T05:06:04.355Z,2.85
2023-06-10T05:07:08.277Z,3.20
2023-06-10T05:08:11.958Z,2.30
2023-06-10T05:09:15.727Z,2.78
2023-06-10T05:10:19.507Z,2.83
2023-06-10T05:11:23.276Z,2.92
2023-06-10T05:12:27.015Z,3.10
2023-06-10T05:13:32.296Z,2.90
2023-06-10T05:14:36.020Z,2.72
2023-06-10T05:15:39.746Z,2.85
2023-06-10T05:16:43.582Z,2.83
2023-06-10T05:17:47.328Z,2.38
2023-06-10T05:18:51.259Z,2.40
2023-06-10T05:19:55.036Z,2.78
2023-06-10T05:20:58.759Z,2.53
2023-06-10T05:22:02.427Z,2.22
2023-06-10T05:23:06.182Z,2.65
2023-06-10T05:24:10.994Z,2.47
2023-06-10T05:25:14.721Z,2.22
2023-06-10T05:26:18.495Z,2.85
2023-06-10T05:27:22.319Z,2.47
2023-06-10T05:28:26.039Z,2.55
2023-06-10T05:29:31.407Z,2.50
2023-06-10T05:30:35.184Z,2.42
2023-06-10T05:31:38.958Z,2.70
2023-06-10T05:32:42.703Z,2.63
2023-06-10T05:33:46.465Z,2.70
2023-06-10T05:34:50.138Z,2.60
2023-06-10T05:35:53.958Z,2.65
2023-06-10T05:36:57.922Z,2.42
2023-06-10T05:38:03.837Z,2.50
2023-06-10T05:39:07.908Z,2.42
2023-06-10T05:40:12.652Z,2.60
2023-06-10T05:41:16.494Z,2.75
2023-06-10T05:42:20.283Z,2.67
2023-06-10T05:43:24.028Z,2.35
2023-06-10T05:44:27.717Z,2.60
2023-06-10T05:45:33.168Z,2.77
2023-06-10T05:46:37.099Z,2.60
2023-06-10T05:47:40.984Z,2.50
2023-06-10T05:48:44.818Z,2.72
2023-06-10T05:49:48.557Z,2.92
2023-06-10T05:50:52.351Z,2.77
2023-06-10T05:51:56.186Z,3.13
2023-06-10T05:52:59.874Z,2.85
2023-06-10T05:54:03.616Z,3.05
2023-06-10T05:55:08.035Z,2.60
2023-06-10T05:56:11.990Z,3.00
2023-06-10T05:57:15.790Z,2.80
2023-06-10T05:58:19.609Z,3.22
2023-06-10T05:59:23.384Z,3.10
2023-06-10T06:00:27.273Z,3.47
2023-06-10T06:01:32.703Z,3.10
2023-06-10T06:02:36.657Z,3.00
2023-06-10T06:03:40.579Z,3.25
2023-06-10T06:04:44.358Z,3.42
2023-06-10T06:05:48.286Z,2.85
2023-06-10T06:06:51.956Z,3.40
2023-06-10T06:07:55.748Z,3.20
2023-06-10T06:08:59.511Z,3.35
2023-06-10T06:10:03.406Z,2.90
2023-06-10T06:11:07.187Z,2.90
2023-06-10T06:12:11.454Z,3.43
2023-06-10T06:13:15.219Z,3.42
2023-06-10T06:14:18.936Z,3.20
2023-06-10T06:15:22.673Z,3.40
2023-06-10T06:16:26.523Z,3.10
2023-06-10T06:17:31.999Z,3.27
2023-06-10T06:18:35.784Z,3.40
2023-06-10T06:19:39.515Z,3.58
2023-06-10T06:20:43.306Z,3.40
2023-06-10T06:21:47.116Z,3.28
2023-06-10T06:22:54.183Z,3.13
2023-06-10T06:23:57.970Z,3.30
2023-06-10T06:25:01.933Z,3.25
2023-06-10T06:26:08.053Z,3.10
2023-06-10T06:27:12.653Z,3.20
2023-06-10T06:28:16.488Z,3.20
2023-06-10T06:29:20.309Z,3.35
2023-06-10T06:30:24.083Z,3.42
2023-06-10T06:31:27.812Z,3.13
2023-06-10T06:32:33.431Z,3.42
2023-06-10T06:33:37.207Z,3.10
2023-06-10T06:34:40.984Z,3.72
2023-06-10T06:35:44.633Z,3.00
2023-06-10T06:36:48.377Z,3.38
2023-06-10T06:37:52.258Z,3.00
2023-06-10T06:38:56.001Z,3.13
2023-06-10T06:40:03.947Z,3.38
2023-06-10T06:41:08.294Z,3.17
2023-06-10T06:42:13.034Z,3.30
2023-06-10T06:43:16.930Z,3.15
2023-06-10T06:44:20.672Z,3.00
2023-06-10T06:45:24.465Z,3.33
2023-06-10T06:46:28.215Z,3.20
2023-06-10T06:47:33.799Z,3.45
2023-06-10T06:48:37.754Z,3.40
2023-06-10T06:49:43.595Z,3.33
2023-06-10T06:50:47.335Z,3.53
2023-06-10T06:51:53.730Z,3.20
2023-06-10T06:52:57.423Z,3.15
2023-06-10T06:54:08.652Z,3.67
2023-06-10T06:55:14.576Z,3.40
2023-06-10T06:56:18.337Z,3.30
2023-06-10T06:57:22.091Z,3.17
2023-06-10T06:58:27.911Z,3.53
2023-06-10T06:59:31.833Z,3.40
2023-06-10T07:00:35.639Z,3.57
2023-06-10T07:01:39.483Z,3.53
2023-06-10T07:02:44.989Z,3.42
2023-06-10T07:03:48.738Z,3.38
2023-06-10T07:04:52.830Z,3.40
2023-06-10T07:05:56.576Z,3.40
2023-06-10T07:07:00.309Z,3.30
2023-06-10T07:08:04.052Z,3.20
2023-06-10T07:09:07.860Z,3.05
2023-06-10T07:10:11.843Z,3.63
2023-06-10T07:11:15.675Z,3.23
2023-06-10T07:12:19.408Z,3.50
2023-06-10T07:13:23.200Z,3.40
2023-06-10T07:14:26.978Z,3.83
2023-06-10T07:15:30.636Z,3.78
2023-06-10T07:16:34.441Z,3.50
2023-06-10T07:17:38.193Z,3.78
2023-06-10T07:18:43.722Z,3.22
2023-06-10T07:19:51.252Z,3.63
2023-06-10T07:20:54.869Z,3.85
2023-06-10T07:21:58.526Z,3.90
2023-06-10T07:23:02.290Z,3.50
2023-06-10T07:24:06.826Z,3.88
2023-06-10T07:25:11.130Z,3.70
2023-06-10T07:26:15.087Z,4.60
2023-06-10T07:27:18.809Z,4.03
2023-06-10T07:28:22.738Z,4.03
2023-06-10T07:29:26.545Z,4.03
2023-06-10T07:30:30.694Z,3.80
2023-06-10T07:31:34.560Z,3.45
2023-06-10T07:32:38.710Z,4.00
2023-06-10T07:33:44.112Z,3.75
2023-06-10T07:34:47.928Z,3.90
2023-06-10T07:35:51.751Z,3.75
2023-06-10T07:36:55.644Z,3.40
2023-06-10T07:37:59.401Z,3.63
2023-06-10T07:39:03.124Z,3.40
2023-06-10T07:40:07.741Z,4.05
2023-06-10T07:41:14.995Z,3.80
2023-06-10T07:42:22.274Z,4.10
2023-06-10T07:43:26.698Z,3.90
2023-06-10T07:44:30.447Z,3.47
2023-06-10T07:45:34.185Z,4.00
2023-06-10T07:46:38.001Z,4.03
2023-06-10T07:47:41.784Z,3.63
2023-06-10T07:48:47.242Z,3.83
2023-06-10T07:49:50.955Z,3.95
2023-06-10T07:50:54.659Z,3.90
2023-06-10T07:51:58.471Z,3.97
2023-06-10T07:53:02.261Z,4.47
2023-06-10T07:54:06.168Z,4.27
2023-06-10T07:55:10.569Z,4.38
2023-06-10T07:56:14.523Z,4.28
2023-06-10T07:57:18.407Z,4.20
2023-06-10T07:58:22.305Z,4.57
2023-06-10T07:59:26.005Z,4.33
2023-06-10T08:00:29.763Z,4.30
2023-06-10T08:01:33.486Z,4.65
2023-06-10T08:02:37.340Z,4.43
2023-06-10T08:03:41.588Z,4.60
2023-06-10T08:04:47.026Z,4.50
2023-06-10T08:05:51.538Z,4.40
2023-06-10T08:06:55.265Z,4.32
2023-06-10T08:08:00.683Z,4.43
2023-06-10T08:09:05.781Z,4.78
2023-06-10T08:10:10.514Z,4.57
2023-06-10T08:11:14.309Z,4.30
2023-06-10T08:12:18.001Z,4.68
2023-06-10T08:13:21.724Z,4.97
2023-06-10T08:14:25.506Z,4.95
2023-06-10T08:15:29.131Z,4.83
2023-06-10T08:16:32.888Z,4.72
2023-06-10T08:17:36.668Z,5.00
2023-06-10T08:18:40.431Z,4.95
2023-06-10T08:19:44.366Z,5.32
2023-06-10T08:20:49.719Z,5.00
2023-06-10T08:21:53.458Z,5.05
2023-06-10T08:22:57.173Z,5.00
2023-06-10T08:24:00.898Z,4.90
2023-06-10T08:25:05.132Z,5.30
2023-06-10T08:26:08.797Z,4.93
2023-06-10T08:27:12.552Z,5.35
2023-06-10T08:28:17.548Z,5.07
2023-06-10T08:29:21.319Z,5.10
2023-06-10T08:30:25.143Z,5.25
2023-06-10T08:31:28.931Z,5.20
2023-06-10T08:32:32.951Z,5.25
2023-06-10T08:33:36.677Z,5.82
2023-06-10T08:34:40.474Z,5.63
2023-06-10T08:35:44.179Z,5.57
2023-06-10T08:36:49.563Z,5.07
2023-06-10T08:37:53.268Z,5.18
2023-06-10T08:38:56.992Z,5.32
2023-06-10T08:40:00.681Z,6.07
2023-06-10T08:41:06.991Z,5.55
2023-06-10T08:42:17.282Z,5.30
2023-06-10T08:43:32.287Z,5.68
2023-06-10T08:44:38.193Z,5.47
2023-06-10T08:45:44.483Z,5.30
2023-06-10T08:46:49.877Z,5.38
2023-06-10T08:47:55.494Z,5.33
2023-06-10T08:49:04.226Z,5.53
2023-06-10T08:50:11.741Z,5.25
2023-06-10T08:51:18.387Z,5.07
2023-06-10T08:52:23.835Z,5.28
2023-06-10T08:53:28.948Z,4.60
2023-06-10T08:54:35.799Z,5.05
2023-06-10T08:55:43.742Z,4.88
2023-06-10T08:56:49.625Z,4.50
2023-06-10T08:57:54.383Z,4.95
2023-06-10T08:58:59.429Z,4.97
2023-06-10T09:00:03.438Z,4.80
2023-06-10T09:01:07.267Z,5.10
2023-06-10T09:02:14.813Z,5.38
2023-06-10T09:03:20.165Z,4.95
2023-06-10T09:04:25.882Z,5.20
2023-06-10T09:05:30.606Z,5.28
2023-06-10T09:06:35.823Z,4.80
2023-06-10T09:07:41.271Z,5.32
2023-06-10T09:08:45.629Z,5.90
2023-06-10T09:09:50.835Z,5.90
2023-06-10T09:10:54.984Z,5.80
2023-06-10T09:11:58.746Z,6.00
2023-06-10T09:13:02.493Z,5.70
2023-06-10T09:14:06.299Z,5.90
2023-06-10T09:15:10.935Z,5.60
2023-06-10T09:16:14.976Z,5.72
2023-06-10T09:17:19.242Z,5.57
2023-06-10T09:18:22.961Z,5.70
2023-06-10T09:19:27.128Z,6.53
2023-06-10T09:20:33.575Z,5.97
2023-06-10T09:21:37.311Z,5.07
2023-06-10T09:22:44.618Z,4.80
2023-06-10T09:23:48.936Z,4.30
2023-06-10T09:24:52.800Z,4.28
2023-06-10T09:25:59.801Z,4.17
2023-06-10T09:27:07.183Z,4.15
2023-06-10T09:28:16.358Z,4.07
2023-06-10T09:29:20.107Z,4.15
2023-06-10T09:30:28.567Z,4.70
2023-06-10T09:31:33.228Z,4.20
2023-06-10T09:32:41.312Z,4.28
2023-06-10T09:33:46.335Z,4.30
2023-06-10T09:34:50.480Z,3.80
2023-06-10T09:35:54.189Z,4.72
2023-06-10T09:36:58.004Z,4.27
2023-06-10T09:38:03.792Z,4.10
2023-06-10T09:39:15.466Z,4.40
2023-06-10T09:40:19.457Z,4.05
2023-06-10T09:41:23.319Z,3.70
2023-06-10T09:42:27.060Z,3.97
2023-06-10T09:43:51.093Z,3.50
2023-06-10T09:44:54.941Z,3.63
2023-06-10T09:45:59.019Z,3.47
2023-06-10T09:47:02.882Z,4.00
2023-06-10T09:48:06.931Z,3.93
2023-06-10T09:49:10.675Z,3.83
2023-06-10T09:50:14.703Z,3.75
2023-06-10T09:51:18.776Z,3.97
2023-06-10T09:52:25.066Z,3.53
2023-06-10T09:53:35.065Z,3.60
2023-06-10T09:54:38.925Z,3.53
2023-06-10T09:55:43.443Z,3.67
2023-06-10T09:56:49.605Z,3.72
2023-06-10T09:57:56.330Z,3.42
2023-06-10T09:59:00.040Z,3.80
2023-06-10T10:00:07.674Z,3.53
2023-06-10T10:01:13.076Z,3.70
2023-06-10T10:02:17.767Z,3.20
2023-06-10T10:03:25.261Z,3.40
2023-06-10T10:04:29.339Z,4.13
2023-06-10T10:05:33.072Z,3.63
2023-06-10T10:06:37.170Z,3.95
2023-06-10T10:07:43.610Z,4.30
2023-06-10T10:08:50.388Z,4.00
2023-06-10T10:09:54.278Z,3.77
2023-06-10T10:11:02.922Z,3.67
2023-06-10T10:12:12.556Z,3.53
2023-06-10T10:13:16.449Z,3.53
2023-06-10T10:14:21.876Z,4.00
2023-06-10T10:15:30.591Z,3.43
2023-06-10T10:16:38.267Z,3.70
2023-06-10T10:17:46.711Z,3.50
2023-06-10T10:18:55.956Z,3.58
2023-06-10T10:20:05.504Z,3.40
2023-06-10T10:21:15.029Z,3.70
2023-06-10T10:22:26.968Z,3.80
2023-06-10T10:23:37.408Z,3.80
2023-06-10T10:24:48.629Z,3.78
2023-06-10T10:25:55.647Z,4.15
2023-06-10T10:27:03.136Z,3.70
2023-06-10T10:28:10.994Z,3.65
2023-06-10T10:29:25.936Z,3.35
2023-06-10T10:30:32.232Z,3.17
2023-06-10T10:31:38.235Z,3.50
2023-06-10T10:32:50.750Z,3.17
2023-06-10T10:33:59.979Z,3.72
2023-06-10T10:35:10.083Z,3.03
2023-06-10T10:36:15.799Z,3.45
2023-06-10T10:37:20.243Z,3.42
2023-06-10T10:38:24.610Z,3.60
2023-06-10T10:39:28.518Z,3.25
2023-06-10T10:40:35.464Z,3.10
2023-06-10T10:41:40.509Z,3.10
2023-06-10T10:42:45.410Z,3.10
2023-06-10T10:43:49.840Z,2.90
2023-06-10T10:44:54.340Z,2.75
2023-06-10T10:46:01.559Z,2.80
2023-06-10T10:47:06.390Z,2.67
2023-06-10T10:48:11.424Z,3.10
2023-06-10T10:49:17.185Z,2.60
2023-06-10T10:50:22.445Z,3.53
2023-06-10T10:51:26.334Z,3.33
2023-06-10T10:52:53.111Z,3.17
2023-06-10T10:54:15.980Z,3.80
2023-06-10T10:55:19.758Z,3.37
2023-06-10T10:56:29.884Z,3.15
2023-06-10T10:57:33.699Z,3.05
2023-06-10T10:58:37.757Z,3.40
2023-06-10T10:59:53.250Z,3.80
2023-06-10T11:00:57.414Z,3.30
2023-06-10T11:02:01.468Z,3.40
2023-06-10T11:03:11.228Z,3.70
2023-06-10T11:04:22.239Z,3.33
2023-06-10T11:05:37.726Z,3.10
2023-06-10T11:06:41.689Z,3.20
2023-06-10T11:07:55.927Z,3.20
2023-06-10T11:09:02.291Z,3.40
2023-06-10T11:10:10.345Z,3.35
2023-06-10T11:11:21.625Z,3.50
2023-06-10T11:12:27.020Z,3.50
2023-06-10T11:13:30.711Z,3.58
2023-06-10T11:14:34.338Z,3.40
2023-06-10T11:15:44.808Z,4.00
2023-06-10T11:16:50.301Z,3.97
2023-06-10T11:18:11.015Z,3.60
2023-06-10T11:19:34.282Z,3.47
2023-06-10T11:21:01.343Z,3.50
2023-06-10T11:22:07.468Z,3.60
2023-06-10T11:23:11.350Z,3.72
2023-06-10T11:24:15.505Z,4.00
2023-06-10T11:25:39.359Z,4.32
2023-06-10T11:26:46.804Z,4.32
2023-06-10T11:27:54.479Z,3.90
2023-06-10T11:29:07.081Z,4.10
2023-06-10T11:30:28.617Z,3.90
2023-06-10T11:31:33.361Z,3.78
2023-06-10T11:32:37.515Z,4.32
2023-06-10T11:33:41.429Z,4.20
2023-06-10T11:34:53.630Z,4.32
2023-06-10T11:35:57.337Z,4.53
2023-06-10T11:37:01.615Z,4.40
2023-06-10T11:38:05.404Z,4.55
2023-06-10T11:39:09.551Z,4.40
2023-06-10T11:40:18.868Z,4.47
2023-06-10T11:41:22.804Z,4.40
2023-06-10T11:42:26.675Z,4.40
2023-06-10T11:43:32.753Z,4.30
2023-06-10T11:44:36.501Z,4.68
2023-06-10T11:45:43.051Z,4.38
2023-06-10T11:46:47.635Z,4.67
2023-06-10T11:48:01.322Z,4.60
2023-06-10T11:49:06.090Z,4.40
2023-06-10T11:50:10.432Z,4.40
2023-06-10T11:51:14.128Z,4.63
2023-06-10T11:52:17.880Z,4.57
2023-06-10T11:53:21.617Z,4.35
2023-06-10T11:54:25.309Z,4.50
2023-06-10T11:55:44.082Z,4.80
2023-06-10T11:56:47.956Z,4.88
2023-06-10T11:57:51.737Z,4.80
2023-06-10T11:58:58.190Z,4.47
2023-06-10T12:00:07.262Z,4.25
2023-06-10T12:01:12.888Z,4.43
2023-06-10T12:02:18.188Z,4.60
2023-06-10T12:03:22.778Z,4.67
2023-06-10T12:04:26.637Z,4.55
2023-06-10T12:05:30.396Z,4.78
2023-06-10T12:06:44.642Z,4.65
2023-06-10T12:07:48.395Z,4.90
2023-06-10T12:08:52.475Z,4.70
2023-06-10T12:10:12.032Z,5.13
2023-06-10T12:11:23.276Z,5.13
2023-06-10T12:12:27.104Z,4.90
2023-06-10T12:13:31.174Z,4.53
2023-06-10T12:14:56.920Z,4.83
2023-06-10T12:16:09.579Z,4.97
2023-06-10T12:17:13.394Z,4.35
2023-06-10T12:18:20.608Z,5.05
2023-06-10T12:19:24.359Z,4.70
2023-06-10T12:20:29.154Z,4.73
2023-06-10T12:21:33.767Z,4.50
2023-06-10T12:22:41.746Z,4.68
2023-06-10T12:24:07.074Z,4.45
2023-06-10T12:25:12.396Z,4.90
2023-06-10T12:26:16.708Z,4.23
2023-06-10T12:27:21.568Z,4.75
2023-06-10T12:28:25.869Z,4.30
2023-06-10T12:29:29.713Z,4.22
2023-06-10T12:30:35.291Z,4.50
2023-06-10T12:32:00.575Z,4.43
2023-06-10T12:33:04.899Z,4.57
2023-06-10T12:34:11.834Z,4.57
2023-06-10T12:35:18.143Z,4.93
2023-06-10T12:36:22.114Z,5.30
2023-06-10T12:37:25.900Z,5.30
2023-06-10T12:38:29.693Z,5.00
2023-06-10T12:39:34.334Z,5.13
2023-06-10T12:40:40.794Z,4.97
2023-06-10T12:41:49.759Z,4.82
2023-06-10T12:42:53.574Z,4.93
2023-06-10T12:43:57.295Z,5.40
2023-06-10T12:45:01.028Z,5.32
2023-06-10T12:46:13.195Z,5.22
2023-06-10T12:47:17.090Z,5.18
2023-06-10T12:48:22.036Z,4.43
2023-06-10T12:49:26.204Z,5.20
2023-06-10T12:50:29.961Z,4.90
2023-06-10T12:51:33.758Z,5.38
2023-06-10T12:52:37.474Z,5.45
2023-06-10T12:53:41.406Z,5.50
2023-06-10T12:54:45.265Z,5.45
2023-06-10T12:55:49.085Z,5.55
2023-06-10T12:56:52.857Z,6.10
2023-06-10T12:57:56.677Z,5.43
2023-06-10T12:59:00.346Z,5.40
2023-06-10T13:00:04.275Z,5.60
2023-06-10T13:01:07.984Z,5.55
2023-06-10T13:02:13.362Z,5.75
2023-06-10T13:03:17.395Z,5.78
2023-06-10T13:04:21.432Z,5.53
2023-06-10T13:05:25.624Z,5.47
2023-06-10T13:06:29.398Z,5.40
2023-06-10T13:07:33.163Z,4.75
2023-06-10T13:08:37.084Z,4.90
2023-06-10T13:09:40.785Z,4.80
2023-06-10T13:10:44.547Z,5.30
2023-06-10T13:11:48.422Z,4.75
2023-06-10T13:12:52.289Z,5.30
2023-06-10T13:13:56.011Z,5.07
2023-06-10T13:14:59.737Z,4.83
2023-06-10T13:16:03.547Z,5.00
2023-06-10T13:17:07.656Z,5.10
2023-06-10T13:18:13.330Z,5.07
2023-06-10T13:19:17.312Z,4.90
2023-06-10T13:20:21.897Z,4.90
2023-06-10T13:21:25.878Z,4.70
2023-06-10T13:22:29.820Z,4.32
2023-06-10T13:23:33.562Z,4.80
2023-06-10T13:24:37.574Z,4.10
2023-06-10T13:25:41.280Z,4.30
2023-06-10T13:26:45.211Z,4.60
2023-06-10T13:27:49.038Z,3.92
2023-06-10T13:28:52.818Z,4.55
2023-06-10T13:29:56.674Z,4.15
2023-06-10T13:31:00.400Z,4.37
2023-06-10T13:32:04.175Z,4.43
2023-06-10T13:33:08.037Z,4.50
2023-06-10T13:34:14.628Z,4.30
2023-06-10T13:35:18.768Z,4.68
2023-06-10T13:36:24.651Z,4.40
2023-06-10T13:37:28.346Z,4.15
2023-06-10T13:38:32.454Z,4.32
2023-06-10T13:39:38.745Z,3.75
2023-06-10T13:40:42.544Z,3.85
2023-06-10T13:41:46.212Z,4.00
2023-06-10T13:42:49.920Z,4.20
2023-06-10T13:43:53.672Z,4.03
2023-06-10T13:44:57.439Z,4.07
2023-06-10T13:46:01.294Z,4.32
2023-06-10T13:47:05.492Z,3.90
2023-06-10T13:48:09.349Z,4.10
2023-06-10T13:49:14.799Z,4.00
2023-06-10T13:50:18.469Z,4.00
2023-06-10T13:51:22.286Z,4.25
2023-06-10T13:52:26.078Z,4.60
2023-06-10T13:53:29.942Z,4.45
2023-06-10T13:54:33.686Z,3.85
2023-06-10T13:55:37.602Z,4.45
2023-06-10T13:56:41.368Z,4.22
2023-06-10T13:57:45.034Z,3.70
2023-06-10T13:58:50.052Z,3.75
2023-06-10T13:59:53.744Z,4.53
2023-06-10T14:00:57.539Z,4.15
2023-06-10T14:02:01.487Z,4.30
2023-06-10T14:03:05.561Z,4.33
2023-06-10T14:04:09.414Z,4.20
2023-06-10T14:05:14.839Z,4.15
2023-06-10T14:06:18.553Z,4.40
2023-06-10T14:07:22.427Z,4.45
2023-06-10T14:08:26.169Z,4.77
2023-06-10T14:09:29.949Z,4.30
2023-06-10T14:10:33.596Z,4.68
2023-06-10T14:11:37.426Z,4.20
2023-06-10T14:12:41.202Z,4.68
2023-06-10T14:13:44.932Z,4.43
2023-06-10T14:14:48.812Z,4.10
2023-06-10T14:15:52.591Z,4.68
2023-06-10T14:16:56.369Z,4.10
2023-06-10T14:18:00.223Z,4.63
2023-06-10T14:19:04.054Z,4.20
2023-06-10T14:20:08.890Z,4.40
2023-06-10T14:21:14.437Z,4.55
2023-06-10T14:22:18.157Z,4.25
2023-06-10T14:23:22.002Z,4.20
2023-06-10T14:24:25.905Z,3.93
2023-06-10T14:25:29.841Z,4.25
2023-06-10T14:26:33.595Z,4.55
2023-06-10T14:27:37.297Z,4.35
2023-06-10T14:28:41.120Z,4.07